createdAt,value
2022-08-03T00:00:32.621Z,100397.84
2022-08-03T00:03:00.485Z,100406.13
2022-08-03T00:05:28.343Z,100391.53
2022-08-03T00:07:56.249Z,100408.56
2022-08-03T00:10:24.173Z,100405.25
2022-08-03T00:12:52.301Z,100401.06
2022-08-03T00:15:20.355Z,100401.44
2022-08-03T00:17:53.742Z,100403.72
2022-08-03T00:20:22.162Z,100392.41
2022-08-03T00:22:50.433Z,100399.53
2022-08-03T00:25:19.156Z,100396.22
2022-08-03T00:27:48.386Z,100394.91
2022-08-03T00:30:18.270Z,100396.31
2022-08-03T00:32:46.331Z,100390.91
2022-08-03T00:35:25.956Z,100391.31
2022-08-03T00:38:02.205Z,100393.69
2022-08-03T00:40:31.515Z,100398.38
2022-08-03T00:43:02.412Z,100385.97
2022-08-03T00:45:37.570Z,100397.06
2022-08-03T00:48:19.492Z,100391.19
2022-08-03T00:50:56.778Z,100396.91
2022-08-03T00:53:25.511Z,100388.00
2022-08-03T00:55:53.329Z,100375.59
2022-08-03T00:58:21.192Z,100381.13
2022-08-03T01:00:49.111Z,100383.84
2022-08-03T01:03:30.357Z,100382.03
2022-08-03T01:06:18.289Z,100385.88
2022-08-03T01:09:08.926Z,100386.59
2022-08-03T01:11:59.826Z,100373.31
2022-08-03T01:15:11.520Z,100376.53
2022-08-03T01:18:09.627Z,100376.53
2022-08-03T01:20:42.493Z,100371.09
2022-08-03T01:23:44.619Z,100373.53
2022-08-03T01:26:36.222Z,100370.72
2022-08-03T01:29:52.961Z,100370.22
2022-08-03T01:32:59.469Z,100369.25
2022-08-03T01:35:38.642Z,100366.41
2022-08-03T01:38:18.485Z,100373.69
2022-08-03T01:40:47.830Z,100363.03
2022-08-03T01:44:01.242Z,100372.53
2022-08-03T01:46:07.663Z,100363.31
2022-08-03T01:48:38.438Z,100362.41
2022-08-03T01:51:08.977Z,100357.69
2022-08-03T01:53:42.730Z,100360.28
2022-08-03T01:56:12.439Z,100355.13
2022-08-03T01:58:42.157Z,100357.09
2022-08-03T02:01:11.628Z,100357.47
2022-08-03T02:04:00.253Z,100355.53
2022-08-03T02:07:02.766Z,100348.63
2022-08-03T02:09:23.622Z,100353.34
2022-08-03T02:11:53.103Z,100354.06
2022-08-03T02:14:22.281Z,100349.63
2022-08-03T02:16:51.770Z,100355.91
2022-08-03T02:19:20.236Z,100349.88
2022-08-03T02:21:56.982Z,100355.31
2022-08-03T02:24:31.118Z,100362.38
2022-08-03T02:27:00.402Z,100360.94
2022-08-03T02:29:40.223Z,100355.63
2022-08-03T02:32:17.341Z,100355.44
2022-08-03T02:34:50.732Z,100357.16
2022-08-03T02:37:21.570Z,100351.97
2022-08-03T02:39:53.303Z,100355.69
2022-08-03T02:42:23.392Z,100356.28
2022-08-03T02:44:53.278Z,100354.69
2022-08-03T02:47:22.469Z,100364.81
2022-08-03T02:49:52.768Z,100366.03
2022-08-03T02:52:25.618Z,100368.00
2022-08-03T02:54:59.053Z,100367.41
2022-08-03T02:57:33.608Z,100365.25
2022-08-03T03:00:02.558Z,100367.53
2022-08-03T03:02:31.872Z,100367.91
2022-08-03T03:05:54.594Z,100362.63
2022-08-03T03:07:51.883Z,100363.16
2022-08-03T03:10:25.815Z,100353.28
2022-08-03T03:12:59.295Z,100356.13
2022-08-03T03:15:31.661Z,100365.38
2022-08-03T03:18:01.423Z,100355.03
2022-08-03T03:20:30.687Z,100347.66
2022-08-03T03:23:01.068Z,100353.09
2022-08-03T03:25:33.378Z,100356.50
2022-08-03T03:28:02.883Z,100356.41
2022-08-03T03:30:31.027Z,100355.41
2022-08-03T03:32:59.486Z,100354.56
2022-08-03T03:35:28.509Z,100354.56
2022-08-03T03:37:57.104Z,100358.22
2022-08-03T03:40:26.385Z,100356.66
2022-08-03T03:42:54.878Z,100356.66
2022-08-03T03:45:24.171Z,100351.22
2022-08-03T03:47:51.969Z,100347.28
2022-08-03T03:50:20.619Z,100353.59
2022-08-03T03:52:48.415Z,100350.50
2022-08-03T03:55:19.919Z,100350.88
2022-08-03T03:57:47.787Z,100349.91
2022-08-03T04:00:18.040Z,100356.69
2022-08-03T04:02:46.317Z,100351.91
2022-08-03T04:05:33.825Z,100355.84
2022-08-03T04:08:47.267Z,100352.72
2022-08-03T04:11:30.388Z,100351.28
2022-08-03T04:14:16.989Z,100359.75
2022-08-03T04:17:01.642Z,100361.47
2022-08-03T04:19:47.883Z,100361.13
2022-08-03T04:22:22.647Z,100354.00
2022-08-03T04:25:05.588Z,100362.34
2022-08-03T04:27:40.537Z,100347.84
2022-08-03T04:30:10.727Z,100355.47
2022-08-03T04:32:44.126Z,100360.88
2022-08-03T04:35:13.536Z,100360.75
2022-08-03T04:37:48.757Z,100368.88
2022-08-03T04:40:32.899Z,100365.75
2022-08-03T04:43:02.080Z,100363.19
2022-08-03T04:45:31.446Z,100364.44
2022-08-03T04:48:00.310Z,100364.78
2022-08-03T04:50:31.050Z,100367.25
2022-08-03T04:53:08.877Z,100376.09
2022-08-03T04:55:37.936Z,100373.13
2022-08-03T04:58:25.730Z,100366.44
2022-08-03T05:00:53.748Z,100373.22
2022-08-03T05:03:25.054Z,100378.38
2022-08-03T05:06:00.578Z,100373.72
2022-08-03T05:08:46.159Z,100376.06
2022-08-03T05:11:17.616Z,100369.53
2022-08-03T05:13:47.951Z,100373.69
2022-08-03T05:16:16.263Z,100379.44
2022-08-03T05:18:44.991Z,100383.38
2022-08-03T05:21:16.953Z,100363.28
2022-08-03T05:23:45.332Z,100392.47
2022-08-03T05:26:13.148Z,100382.19
2022-08-03T05:28:50.664Z,100380.22
2022-08-03T05:31:19.829Z,100383.56
2022-08-03T05:33:48.976Z,100389.78
2022-08-03T05:36:16.888Z,100391.34
2022-08-03T05:38:44.829Z,100390.00
2022-08-03T05:41:22.294Z,100392.31
2022-08-03T05:43:55.399Z,100402.50
2022-08-03T05:46:23.794Z,100405.06
2022-08-03T05:48:51.886Z,100395.69
2022-08-03T05:51:19.851Z,100402.56
2022-08-03T05:53:47.776Z,100395.03
2022-08-03T05:56:16.597Z,100400.06
2022-08-03T05:58:48.322Z,100401.25
2022-08-03T06:01:17.750Z,100400.13
2022-08-03T06:03:46.336Z,100401.59
2022-08-03T06:06:15.134Z,100401.16
2022-08-03T06:08:44.978Z,100402.59
2022-08-03T06:11:13.744Z,100397.53
2022-08-03T06:13:42.118Z,100406.13
2022-08-03T06:16:10.085Z,100405.56
2022-08-03T06:18:38.833Z,100397.88
2022-08-03T06:21:14.477Z,100399.94
2022-08-03T06:23:54.015Z,100394.69
2022-08-03T06:26:28.878Z,100388.28
2022-08-03T06:28:56.971Z,100388.47
2022-08-03T06:31:33.121Z,100394.09
2022-08-03T06:34:33.671Z,100393.28
2022-08-03T06:36:58.519Z,100389.59
2022-08-03T06:39:30.094Z,100387.72
2022-08-03T06:41:58.106Z,100385.69
2022-08-03T06:44:26.127Z,100390.28
2022-08-03T06:46:54.090Z,100385.94
2022-08-03T06:49:22.008Z,100392.78
2022-08-03T06:52:03.577Z,100395.19
2022-08-03T06:54:33.225Z,100393.00
2022-08-03T06:57:01.297Z,100398.09
2022-08-03T07:00:09.005Z,100399.06
2022-08-03T07:02:19.737Z,100395.56
2022-08-03T07:04:50.846Z,100391.09
2022-08-03T07:07:19.384Z,100398.63
2022-08-03T07:09:57.425Z,100389.59
2022-08-03T07:12:30.195Z,100394.81
2022-08-03T07:15:02.617Z,100392.34
2022-08-03T07:17:33.775Z,100391.25
2022-08-03T07:20:05.053Z,100389.75
2022-08-03T07:22:32.994Z,100391.72
2022-08-03T07:25:01.606Z,100393.56
2022-08-03T07:27:30.283Z,100392.16
2022-08-03T07:30:00.261Z,100394.38
2022-08-03T07:32:31.486Z,100391.53
2022-08-03T07:35:01.139Z,100392.28
2022-08-03T07:37:30.821Z,100393.03
2022-08-03T07:40:00.055Z,100396.53
2022-08-03T07:42:29.192Z,100385.38
2022-08-03T07:44:58.621Z,100390.72
2022-08-03T07:47:35.718Z,100395.91
2022-08-03T07:50:07.154Z,100394.06
2022-08-03T07:52:49.453Z,100383.50
2022-08-03T07:55:21.237Z,100387.81
2022-08-03T07:58:09.530Z,100384.63
2022-08-03T08:00:37.810Z,100389.47
2022-08-03T08:03:05.722Z,100392.56
2022-08-03T08:05:34.565Z,100387.13
2022-08-03T08:08:03.744Z,100386.28
2022-08-03T08:10:32.847Z,100387.84
2022-08-03T08:13:01.708Z,100381.50
2022-08-03T08:15:30.234Z,100378.31
2022-08-03T08:18:01.442Z,100382.94
2022-08-03T08:20:38.024Z,100376.94
2022-08-03T08:23:09.642Z,100363.44
2022-08-03T08:25:59.191Z,100363.25
2022-08-03T08:28:32.855Z,100373.16
2022-08-03T08:31:02.648Z,100360.00
2022-08-03T08:33:54.279Z,100366.66
2022-08-03T08:36:19.934Z,100367.84
2022-08-03T08:38:47.774Z,100370.44
2022-08-03T08:41:16.386Z,100374.53
2022-08-03T08:43:44.430Z,100362.53
2022-08-03T08:46:22.947Z,100363.88
2022-08-03T08:48:54.044Z,100363.69
2022-08-03T08:51:51.049Z,100369.34
2022-08-03T08:54:18.090Z,100364.84
2022-08-03T08:56:46.526Z,100365.88
2022-08-03T08:59:15.110Z,100356.75
2022-08-03T09:01:43.060Z,100363.06
2022-08-03T09:04:12.387Z,100357.72
2022-08-03T09:06:40.314Z,100356.63
2022-08-03T09:09:08.337Z,100358.13
2022-08-03T09:11:52.354Z,100354.84
2022-08-03T09:14:36.727Z,100354.63
2022-08-03T09:17:10.150Z,100357.50
2022-08-03T09:20:07.646Z,100353.31
2022-08-03T09:22:36.250Z,100350.38
2022-08-03T09:25:27.190Z,100348.41
2022-08-03T09:27:55.378Z,100347.88
2022-08-03T09:30:34.537Z,100336.00
2022-08-03T09:33:10.080Z,100338.31
2022-08-03T09:35:54.997Z,100326.22
2022-08-03T09:38:27.251Z,100344.50
2022-08-03T09:41:00.390Z,100331.53
2022-08-03T09:43:45.572Z,100327.00
2022-08-03T09:46:13.578Z,100325.50
2022-08-03T09:48:41.461Z,100323.25
2022-08-03T09:51:13.293Z,100316.16
2022-08-03T09:53:58.832Z,100315.19
2022-08-03T09:56:47.302Z,100320.81
2022-08-03T09:59:25.413Z,100328.06
2022-08-03T10:01:55.712Z,100312.91
2022-08-03T10:04:24.577Z,100326.72
2022-08-03T10:07:09.184Z,100312.69
2022-08-03T10:09:38.213Z,100313.53
2022-08-03T10:12:13.959Z,100313.25
2022-08-03T10:14:45.585Z,100312.25
2022-08-03T10:17:13.734Z,100308.72
2022-08-03T10:19:41.785Z,100304.06
2022-08-03T10:22:22.036Z,100305.91
2022-08-03T10:25:00.090Z,100300.22
2022-08-03T10:27:34.130Z,100302.84
2022-08-03T10:30:10.506Z,100294.00
2022-08-03T10:33:49.877Z,100306.34
2022-08-03T10:36:11.784Z,100286.00
2022-08-03T10:38:52.679Z,100284.28
2022-08-03T10:41:25.576Z,100280.94
2022-08-03T10:44:03.557Z,100280.97
2022-08-03T10:46:33.340Z,100273.19
2022-08-03T10:49:01.958Z,100276.19
2022-08-03T10:51:33.519Z,100284.50
2022-08-03T10:54:02.093Z,100279.03
2022-08-03T10:56:51.448Z,100269.78
2022-08-03T10:59:50.961Z,100267.31
2022-08-03T11:02:18.953Z,100277.06
2022-08-03T11:04:46.845Z,100262.50
2022-08-03T11:07:23.172Z,100259.31
2022-08-03T11:09:56.246Z,100266.59
2022-08-03T11:12:30.361Z,100264.28
2022-08-03T11:15:10.293Z,100253.69
2022-08-03T11:17:46.820Z,100251.38
2022-08-03T11:20:48.402Z,100247.81
2022-08-03T11:24:03.305Z,100247.41
2022-08-03T11:26:31.179Z,100255.03
2022-08-03T11:29:31.471Z,100247.41
2022-08-03T11:31:59.323Z,100247.03
2022-08-03T11:34:27.290Z,100245.16
2022-08-03T11:37:23.316Z,100238.63
2022-08-03T11:39:54.653Z,100244.78
2022-08-03T11:42:22.476Z,100250.22
2022-08-03T11:44:58.681Z,100245.41
2022-08-03T11:47:29.507Z,100240.13
2022-08-03T11:50:02.166Z,100239.94
2022-08-03T11:52:40.151Z,100234.66
2022-08-03T11:55:13.010Z,100232.31
2022-08-03T11:59:16.954Z,100237.44
2022-08-03T12:00:31.940Z,100230.84
2022-08-03T12:03:02.930Z,100228.09
2022-08-03T12:05:38.110Z,100216.66
2022-08-03T12:08:08.575Z,100225.78
2022-08-03T12:10:38.112Z,100220.72
2022-08-03T12:14:26.926Z,100219.44
2022-08-03T12:15:59.252Z,100219.44
2022-08-03T12:18:27.256Z,100222.84
2022-08-03T12:21:11.752Z,100216.13
2022-08-03T12:23:40.098Z,100215.03
2022-08-03T12:26:10.295Z,100218.44
2022-08-03T12:28:38.655Z,100197.88
2022-08-03T12:31:09.413Z,100201.47
2022-08-03T12:34:06.515Z,100203.41
2022-08-03T12:36:36.347Z,100194.69
2022-08-03T12:39:09.557Z,100202.56
2022-08-03T12:41:39.975Z,100195.97
2022-08-03T12:44:09.636Z,100201.06
2022-08-03T12:46:47.524Z,100196.84
2022-08-03T12:49:18.735Z,100193.41
2022-08-03T12:51:46.828Z,100192.81
2022-08-03T12:54:24.613Z,100192.19
2022-08-03T12:59:53.474Z,100189.19
2022-08-03T13:02:28.698Z,100180.28
2022-08-03T13:04:56.563Z,100182.19
2022-08-03T13:07:24.412Z,100190.91
2022-08-03T13:09:56.643Z,100178.56
2022-08-03T13:12:27.387Z,100182.81
2022-08-03T13:15:01.496Z,100170.72
2022-08-03T13:17:29.267Z,100181.53
2022-08-03T13:19:57.026Z,100175.38
2022-08-03T13:22:30.734Z,100167.50
2022-08-03T13:25:01.038Z,100171.78
2022-08-03T13:28:04.478Z,100160.72
2022-08-03T13:30:28.197Z,100167.50
2022-08-03T13:33:00.075Z,100164.53
2022-08-03T13:35:28.152Z,100167.72
2022-08-03T13:37:56.083Z,100163.44
2022-08-03T13:40:30.272Z,100163.03
2022-08-03T13:42:58.452Z,100152.84
2022-08-03T13:45:27.539Z,100141.78
2022-08-03T13:47:55.454Z,100157.72
2022-08-03T13:50:23.183Z,100152.38
2022-08-03T13:52:51.038Z,100141.09
2022-08-03T13:55:19.038Z,100148.13
2022-08-03T13:58:04.083Z,100140.69
2022-08-03T14:00:35.032Z,100147.91
2022-08-03T14:03:09.538Z,100139.19
2022-08-03T14:05:43.396Z,100137.28
2022-08-03T14:08:11.851Z,100136.19
2022-08-03T14:10:43.805Z,100123.88
2022-08-03T14:13:16.845Z,100131.31
2022-08-03T14:15:51.259Z,100134.09
2022-08-03T14:18:28.971Z,100130.00
2022-08-03T14:21:06.991Z,100127.88
2022-08-03T14:23:37.874Z,100126.81
2022-08-03T14:26:07.516Z,100126.59
2022-08-03T14:28:36.156Z,100128.06
2022-08-03T14:31:04.624Z,100126.78
2022-08-03T14:33:36.373Z,100112.13
2022-08-03T14:36:05.037Z,100109.31
2022-08-03T14:38:32.937Z,100118.91
2022-08-03T14:41:00.804Z,100108.69
2022-08-03T14:43:34.258Z,100109.53
2022-08-03T14:46:02.277Z,100111.63
2022-08-03T14:50:30.492Z,100106.75
2022-08-03T14:51:19.094Z,100113.75
2022-08-03T14:53:46.906Z,100115.44
2022-08-03T14:56:14.854Z,100110.75
2022-08-03T14:58:42.595Z,100107.13
2022-08-03T15:02:02.560Z,100102.44
2022-08-03T15:03:58.571Z,100099.91
2022-08-03T15:06:26.591Z,100105.84
2022-08-03T15:11:42.830Z,100091.19
2022-08-03T15:14:13.553Z,100087.56
2022-08-03T15:16:44.087Z,100089.03
2022-08-03T15:20:03.088Z,100084.34
2022-08-03T15:22:01.097Z,100080.91
2022-08-03T15:24:29.462Z,100078.56
2022-08-03T15:26:57.478Z,100064.75
2022-08-03T15:30:05.129Z,100068.13
2022-08-03T15:32:14.024Z,100063.44
2022-08-03T15:34:50.805Z,100063.00
2022-08-03T15:37:20.661Z,100057.03
2022-08-03T15:39:59.712Z,100059.78
2022-08-03T15:42:31.168Z,100057.03
2022-08-03T15:44:59.367Z,100051.69
2022-08-03T15:47:27.761Z,100041.72
2022-08-03T15:49:55.516Z,100047.66
2022-08-03T15:52:23.451Z,100042.34
2022-08-03T15:54:51.324Z,100047.66
2022-08-03T15:57:19.490Z,100042.72
2022-08-03T15:59:47.623Z,100035.91
2022-08-03T16:02:15.760Z,100035.69
2022-08-03T16:04:43.558Z,100032.31
2022-08-03T16:07:12.864Z,100032.31
2022-08-03T16:09:43.035Z,100035.69
2022-08-03T16:12:15.863Z,100030.38
2022-08-03T16:14:54.430Z,100034.59
2022-08-03T16:17:24.233Z,100020.59
2022-08-03T16:19:52.765Z,100026.13
2022-08-03T16:22:24.571Z,100028.47
2022-08-03T16:24:54.101Z,100030.16
2022-08-03T16:27:56.701Z,100021.63
2022-08-03T16:30:13.191Z,100021.84
2022-08-03T16:32:41.316Z,100015.91
2022-08-03T16:35:19.584Z,100013.56
2022-08-03T16:37:53.667Z,100008.50
2022-08-03T16:40:25.216Z,100013.78
2022-08-03T16:42:53.016Z,100020.41
2022-08-03T16:45:21.156Z,100018.69
2022-08-03T16:47:48.986Z,100021.44
2022-08-03T16:50:29.607Z,100021.06
2022-08-03T16:52:57.467Z,100016.59
2022-08-03T16:55:48.395Z,100014.69
2022-08-03T16:58:14.976Z,100015.97
2022-08-03T17:00:43.131Z,100012.13
2022-08-03T17:03:20.488Z,100008.53
2022-08-03T17:05:52.239Z,100011.53
2022-08-03T17:08:26.566Z,100009.84
2022-08-03T17:10:56.363Z,100014.72
2022-08-03T17:13:33.028Z,100007.75
2022-08-03T17:16:10.360Z,100017.97
2022-08-03T17:18:42.123Z,100004.50
2022-08-03T17:21:17.490Z,100011.69
2022-08-03T17:23:55.113Z,100010.16
2022-08-03T17:26:30.278Z,100015.06
2022-08-03T17:29:11.329Z,100004.47
2022-08-03T17:31:48.891Z,99999.81
2022-08-03T17:34:19.360Z,100018.31
2022-08-03T17:37:05.538Z,100013.41
2022-08-03T17:42:31.218Z,100017.72
2022-08-03T17:45:02.141Z,100011.78
2022-08-03T17:47:42.858Z,100012.44
2022-08-03T17:50:24.067Z,100011.44
2022-08-03T17:53:24.277Z,100011.63
2022-08-03T17:56:50.730Z,100016.59
2022-08-03T17:59:54.034Z,100019.78
2022-08-03T18:03:06.199Z,100027.03
2022-08-03T18:06:10.669Z,100025.13
2022-08-03T18:08:43.737Z,100033.44
2022-08-03T18:11:21.294Z,100033.88
2022-08-03T18:14:17.010Z,100031.78
2022-08-03T18:16:57.764Z,100036.50
2022-08-03T18:20:02.551Z,100019.97
2022-08-03T18:22:21.035Z,100027.81
2022-08-03T18:24:54.645Z,100031.47
2022-08-03T18:27:23.501Z,100024.00
2022-08-03T18:30:15.125Z,100033.78
2022-08-03T18:32:44.221Z,100028.25
2022-08-03T18:38:18.859Z,100026.81
2022-08-03T18:40:48.811Z,100028.53
2022-08-03T18:43:18.446Z,100024.91
2022-08-03T18:45:55.864Z,100019.41
2022-08-03T18:48:46.045Z,100031.25
2022-08-03T18:51:28.863Z,100020.00
2022-08-03T18:54:51.808Z,100031.06
2022-08-03T18:57:30.359Z,100033.34
2022-08-03T19:00:10.560Z,100034.16
2022-08-03T19:03:05.228Z,100028.38
2022-08-03T19:05:56.254Z,100044.69
2022-08-03T19:09:22.848Z,100036.31
2022-08-03T19:12:13.154Z,100038.63
2022-08-03T19:14:56.352Z,100035.19
2022-08-03T19:17:29.520Z,100047.88
2022-08-03T19:19:58.688Z,100045.94
2022-08-03T19:22:30.032Z,100056.03
2022-08-03T19:25:01.536Z,100050.69
2022-08-03T19:27:31.615Z,100055.28
2022-08-03T19:30:08.294Z,100061.97
2022-08-03T19:32:48.304Z,100058.75
2022-08-03T19:35:18.893Z,100061.41
2022-08-03T19:37:47.085Z,100067.69
2022-08-03T19:40:15.087Z,100062.13
2022-08-03T19:42:54.696Z,100062.91
2022-08-03T19:46:04.786Z,100065.59
2022-08-03T19:48:29.534Z,100064.44
2022-08-03T19:50:59.804Z,100072.63
2022-08-03T19:53:35.171Z,100064.03
2022-08-03T19:56:06.276Z,100060.16
2022-08-03T19:58:35.343Z,100067.25
2022-08-03T20:01:21.345Z,100061.25
2022-08-03T20:03:50.726Z,100073.66
2022-08-03T20:06:22.543Z,100062.03
2022-08-03T20:08:51.589Z,100074.81
2022-08-03T20:11:20.807Z,100072.84
2022-08-03T20:13:58.671Z,100067.47
2022-08-03T20:16:26.746Z,100067.38
2022-08-03T20:18:54.835Z,100063.84
2022-08-03T20:21:27.191Z,100063.56
2022-08-03T20:24:02.875Z,100064.34
2022-08-03T20:26:53.952Z,100072.03
2022-08-03T20:29:42.679Z,100071.53
2022-08-03T20:32:24.661Z,100072.03
2022-08-03T20:34:53.344Z,100078.28
2022-08-03T20:37:21.455Z,100078.84
2022-08-03T20:39:49.696Z,100068.56
2022-08-03T20:42:19.270Z,100077.34
2022-08-03T20:45:05.156Z,100070.91
2022-08-03T20:47:35.934Z,100076.66
2022-08-03T20:50:07.636Z,100074.97
2022-08-03T20:52:49.529Z,100066.81
2022-08-03T20:55:47.225Z,100067.75
2022-08-03T20:58:07.935Z,100076.69
2022-08-03T21:00:35.931Z,100070.75
2022-08-03T21:03:03.874Z,100075.06
2022-08-03T21:05:47.792Z,100065.66
2022-08-03T21:08:18.227Z,100074.63
2022-08-03T21:10:46.886Z,100071.56
2022-08-03T21:13:04.350Z,100027.63
2022-08-03T21:13:51.856Z,100050.63
2022-08-03T21:16:26.842Z,100068.28
2022-08-03T21:18:58.910Z,100066.78
2022-08-03T21:21:30.898Z,100064.38
2022-08-03T21:24:03.543Z,100053.97
2022-08-03T21:26:37.740Z,100055.56
2022-08-03T21:29:06.319Z,100053.50
2022-08-03T21:31:34.724Z,100057.63
2022-08-03T21:34:05.119Z,100051.66
2022-08-03T21:36:36.044Z,100046.41
2022-08-03T21:39:09.446Z,100057.91
2022-08-03T21:41:40.427Z,100054.84
2022-08-03T21:44:09.503Z,100063.97
2022-08-03T21:46:40.927Z,100060.53
2022-08-03T21:50:05.405Z,100059.38
2022-08-03T21:52:06.844Z,100066.91
2022-08-03T21:54:40.126Z,100064.53
2022-08-03T21:57:24.913Z,100067.63
2022-08-03T22:00:10.436Z,100062.50
2022-08-03T22:03:15.126Z,100060.66
2022-08-03T22:05:44.761Z,100061.19
2022-08-03T22:08:15.719Z,100051.44
2022-08-03T22:10:45.124Z,100051.09
2022-08-03T22:13:19.497Z,100054.03
2022-08-03T22:16:04.367Z,100058.50
2022-08-03T22:18:32.326Z,100053.19
2022-08-03T22:21:00.491Z,100051.16
2022-08-03T22:23:28.336Z,100057.97
2022-08-03T22:25:58.931Z,100058.16
2022-08-03T22:28:30.526Z,100056.47
2022-08-03T22:31:00.290Z,100059.22
2022-08-03T22:33:49.316Z,100062.09
2022-08-03T22:36:23.030Z,100056.94
2022-08-03T22:38:53.992Z,100060.19
2022-08-03T22:41:22.361Z,100047.91
2022-08-03T22:43:50.183Z,100054.75
2022-08-03T22:46:21.993Z,100059.03
2022-08-03T22:48:51.640Z,100066.72
2022-08-03T22:51:20.214Z,100060.72
2022-08-03T22:53:48.724Z,100060.75
2022-08-03T22:56:16.720Z,100060.56
2022-08-03T22:58:44.473Z,100055.78
2022-08-03T23:01:19.266Z,100058.53
2022-08-03T23:04:00.083Z,100060.59
2022-08-03T23:06:37.919Z,100054.94
2022-08-03T23:09:12.227Z,100054.44
2022-08-03T23:11:45.955Z,100058.53
2022-08-03T23:14:17.739Z,100060.03
2022-08-03T23:16:47.551Z,100056.13
2022-08-03T23:19:25.015Z,100059.53
2022-08-03T23:22:02.890Z,100065.00
2022-08-03T23:24:38.975Z,100070.97
2022-08-03T23:27:08.156Z,100065.88
2022-08-03T23:29:38.120Z,100066.03
2022-08-03T23:32:07.146Z,100067.88
2022-08-03T23:34:56.895Z,100070.25
2022-08-03T23:37:26.209Z,100063.75
2022-08-03T23:39:56.921Z,100066.16
2022-08-03T23:42:25.490Z,100065.94
2022-08-03T23:45:06.145Z,100065.94
2022-08-03T23:47:47.220Z,100058.94
2022-08-03T23:50:16.354Z,100048.50
2022-08-03T23:53:12.008Z,100049.03
2022-08-03T23:56:19.115Z,100051.09
2022-08-03T23:59:23.730Z,100051.59
